Time;durP1;ratioP1;P1;durP2;ratioP2;P2;SDS_P1;SDS_P2;PMS_P1;PMS_P2;Temp;Humidity;BMP_temperature;BMP_pressure;BME280_temperature;BME280_humidity;BME280_pressure;Samples;Min_cycle;Max_cycle;Signal;HPM_P1;HPM_P2
2023/07/22 00:01:25;;;;;;;0.20;0.20;;;14.30;99.90;;;;;;5086398;28;20041;-80
2023/07/22 00:03:51;;;;;;;0.17;0.17;;;14.30;99.90;;;;;;5087236;28;20406;-80
2023/07/22 00:06:17;;;;;;;0.20;0.20;;;14.20;99.90;;;;;;5081012;28;20089;-80
2023/07/22 00:08:42;;;;;;;0.20;0.20;;;14.20;99.90;;;;;;5083382;28;20082;-80
2023/07/22 00:11:08;;;;;;;0.20;0.20;;;14.30;99.90;;;;;;5075289;28;20053;-80
2023/07/22 00:13:34;;;;;;;0.20;0.20;;;14.30;99.90;;;;;;5077895;28;20039;-80
2023/07/22 00:16:01;;;;;;;0.20;0.20;;;14.30;99.90;;;;;;5079910;28;20106;-80
2023/07/22 00:18:30;;;;;;;0.20;0.20;;;14.30;99.90;;;;;;5075473;28;20110;-81
2023/07/22 00:20:57;;;;;;;0.20;0.20;;;14.30;99.90;;;;;;5074282;28;20036;-82
2023/07/22 00:23:23;;;;;;;0.17;0.17;;;14.30;99.90;;;;;;5076427;28;20052;-80
2023/07/22 00:25:49;;;;;;;0.10;0.10;;;14.30;99.90;;;;;;5085458;28;20511;-80
2023/07/22 00:28:15;;;;;;;0.20;0.20;;;14.30;99.90;;;;;;5086339;28;20093;-80
2023/07/22 00:30:41;;;;;;;0.20;0.20;;;14.30;99.90;;;;;;5083982;28;20040;-80
2023/07/22 00:33:07;;;;;;;0.17;0.17;;;14.30;99.90;;;;;;5083927;28;20044;-80
2023/07/22 00:35:33;;;;;;;0.20;0.20;;;14.30;99.90;;;;;;5089918;28;20040;-81
2023/07/22 00:38:00;;;;;;;0.13;0.13;;;14.30;99.90;;;;;;5083675;28;20044;-81
2023/07/22 00:40:25;;;;;;;0.10;0.10;;;14.30;99.90;;;;;;5087556;28;20047;-81
2023/07/22 00:42:51;;;;;;;0.10;0.10;;;14.20;99.90;;;;;;5084021;28;20534;-80
2023/07/22 00:45:17;;;;;;;0.20;0.20;;;14.20;99.90;;;;;;5106511;27;20037;-81
2023/07/22 00:47:44;;;;;;;0.20;0.20;;;14.20;99.90;;;;;;5098425;28;20423;-81
2023/07/22 00:50:10;;;;;;;0.20;0.20;;;14.20;99.90;;;;;;5088104;28;20040;-80
2023/07/22 00:52:37;;;;;;;0.20;0.20;;;14.20;99.90;;;;;;5086153;28;20056;-81
2023/07/22 00:55:04;;;;;;;0.10;0.10;;;14.20;99.90;;;;;;5084792;28;20044;-81
2023/07/22 00:57:29;;;;;;;0.10;0.10;;;14.20;99.90;;;;;;5087918;28;20040;-81
2023/07/22 00:59:55;;;;;;;0.20;0.20;;;14.20;99.90;;;;;;5089359;28;20069;-80
2023/07/22 01:02:22;;;;;;;0.20;0.20;;;14.20;99.90;;;;;;5086439;28;20131;-81
2023/07/22 01:04:49;;;;;;;0.20;0.20;;;14.10;99.90;;;;;;5083159;28;20792;-82
2023/07/22 01:07:15;;;;;;;0.20;0.20;;;14.10;99.90;;;;;;5083816;28;20047;-81
2023/07/22 01:09:43;;;;;;;0.20;0.20;;;14.10;99.90;;;;;;5079477;28;20047;-80
2023/07/22 01:12:09;;;;;;;0.20;0.20;;;14.10;99.90;;;;;;5083000;28;20052;-81
2023/07/22 01:14:41;;;;;;;0.10;0.10;;;14.00;99.90;;;;;;5082190;28;20051;-81
2023/07/22 01:17:09;;;;;;;0.20;0.20;;;14.00;99.90;;;;;;5089226;28;20407;-81
2023/07/22 01:19:35;;;;;;;0.20;0.20;;;14.00;99.90;;;;;;5083413;28;20058;-81
2023/07/22 01:22:03;;;;;;;0.20;0.20;;;14.00;99.90;;;;;;5090316;28;20402;-81
2023/07/22 01:24:29;;;;;;;0.10;0.10;;;14.00;99.90;;;;;;5115635;27;20151;-81
2023/07/22 01:26:55;;;;;;;0.20;0.20;;;13.90;99.90;;;;;;5086291;28;20517;-81
2023/07/22 01:29:24;;;;;;;0.20;0.20;;;13.90;99.90;;;;;;5080984;28;20048;-80
2023/07/22 01:31:54;;;;;;;0.10;0.10;;;13.90;99.90;;;;;;5081940;28;20403;-81
2023/07/22 01:34:22;;;;;;;0.20;0.20;;;13.90;99.90;;;;;;5100636;28;20056;-81
2023/07/22 01:36:48;;;;;;;0.20;0.20;;;13.90;99.90;;;;;;5088469;28;20071;-82
2023/07/22 01:39:15;;;;;;;0.20;0.20;;;13.90;99.90;;;;;;5084432;28;20504;-81
2023/07/22 01:41:41;;;;;;;0.20;0.20;;;13.80;99.90;;;;;;5076868;28;20042;-82
2023/07/22 01:44:07;;;;;;;0.20;0.20;;;13.80;99.90;;;;;;5084078;28;20414;-81
2023/07/22 01:46:33;;;;;;;0.20;0.20;;;13.80;99.90;;;;;;5079618;28;20124;-81
2023/07/22 01:49:01;;;;;;;0.20;0.20;;;13.80;99.90;;;;;;5088031;28;20040;-82
2023/07/22 01:51:27;;;;;;;0.40;0.40;;;13.80;99.90;;;;;;5086265;28;20062;-81
2023/07/22 01:53:53;;;;;;;0.10;0.10;;;13.80;99.90;;;;;;5087660;28;20040;-81
2023/07/22 01:56:20;;;;;;;0.20;0.20;;;13.80;99.90;;;;;;5080931;28;20044;-81
2023/07/22 01:58:46;;;;;;;0.20;0.20;;;13.80;99.90;;;;;;5104003;28;20052;-81
2023/07/22 02:01:15;;;;;;;0.10;0.10;;;13.80;99.90;;;;;;5080343;28;20044;-82
2023/07/22 02:03:41;;;;;;;0.20;0.20;;;13.80;99.90;;;;;;5075845;28;20058;-81
2023/07/22 02:06:06;;;;;;;0.20;0.20;;;13.70;99.90;;;;;;5078579;28;20475;-82
2023/07/22 02:08:32;;;;;;;0.20;0.20;;;13.70;99.90;;;;;;5086278;28;20040;-81
2023/07/22 02:11:04;;;;;;;0.20;0.20;;;13.70;99.90;;;;;;5081469;28;20051;-81
2023/07/22 02:13:30;;;;;;;;;;;13.70;99.90;;;;;;5088991;28;20149;-81
2023/07/22 02:15:55;;;;;;;0.17;0.17;;;13.60;99.90;;;;;;5088137;28;19920;-81
2023/07/22 02:18:21;;;;;;;0.20;0.20;;;13.60;99.90;;;;;;5081601;28;20044;-81
2023/07/22 02:20:47;;;;;;;0.20;0.20;;;13.60;99.90;;;;;;5085656;28;20044;-81
2023/07/22 02:23:12;;;;;;;0.10;0.10;;;13.60;99.90;;;;;;5086638;28;20530;-81
2023/07/22 02:25:38;;;;;;;0.10;0.10;;;13.60;99.90;;;;;;5110318;28;20472;-81
2023/07/22 02:28:04;;;;;;;0.20;0.20;;;13.60;99.90;;;;;;5087332;28;20083;-81
2023/07/22 02:30:29;;;;;;;0.20;0.20;;;13.50;99.90;;;;;;5118637;28;20058;-81
2023/07/22 02:32:56;;;;;;;0.20;0.20;;;13.50;99.90;;;;;;5077439;28;20050;-82
2023/07/22 02:35:21;;;;;;;0.20;0.20;;;13.50;99.90;;;;;;5074261;28;20070;-81
2023/07/22 02:37:47;;;;;;;0.20;0.20;;;13.50;99.90;;;;;;5086146;28;20044;-82
2023/07/22 02:40:12;;;;;;;0.20;0.20;;;13.40;99.90;;;;;;5120768;28;20055;-81
2023/07/22 02:42:39;;;;;;;0.20;0.20;;;13.40;99.90;;;;;;5085555;28;20047;-82
2023/07/22 02:45:07;;;;;;;0.10;0.10;;;13.40;99.90;;;;;;5094460;28;20111;-82
2023/07/22 02:47:34;;;;;;;0.10;0.10;;;13.40;99.90;;;;;;5089136;28;20035;-81
2023/07/22 02:50:00;;;;;;;0.20;0.20;;;13.40;99.90;;;;;;5084263;28;20033;-81
2023/07/22 02:52:26;;;;;;;0.20;0.20;;;13.40;99.90;;;;;;5108207;27;20036;-81
2023/07/22 02:55:12;;;;;;;0.20;0.20;;;13.40;99.90;;;;;;5080858;28;20047;-81
2023/07/22 02:57:39;;;;;;;0.20;0.20;;;13.30;99.90;;;;;;5088653;28;20052;-81
2023/07/22 03:00:07;;;;;;;0.20;0.20;;;13.30;99.90;;;;;;5078403;28;20036;-81
2023/07/22 03:02:34;;;;;;;0.20;0.20;;;13.30;99.90;;;;;;5081395;28;20054;-81
2023/07/22 03:04:59;;;;;;;0.20;0.20;;;13.90;99.90;;;;;;5070091;28;20387;-82
2023/07/22 03:07:28;;;;;;;0.20;0.20;;;13.20;99.90;;;;;;5083269;28;20048;-81
2023/07/22 03:09:54;;;;;;;0.10;0.10;;;13.20;99.90;;;;;;5085499;28;20036;-81
2023/07/22 03:12:19;;;;;;;0.10;0.10;;;13.20;99.90;;;;;;5084926;28;20106;-81
2023/07/22 03:14:45;;;;;;;0.20;0.20;;;13.20;99.90;;;;;;5091125;28;20048;-81
2023/07/22 03:17:14;;;;;;;0.20;0.20;;;13.20;99.90;;;;;;5123757;27;20048;-81
2023/07/22 03:19:40;;;;;;;0.20;0.20;;;13.20;99.90;;;;;;5080248;28;20076;-81
2023/07/22 03:22:06;;;;;;;0.20;0.20;;;13.20;99.90;;;;;;5073094;28;20415;-80
2023/07/22 03:24:31;;;;;;;0.10;0.10;;;13.20;99.90;;;;;;5078787;28;20040;-81
2023/07/22 03:26:57;;;;;;;0.10;0.10;;;13.10;99.90;;;;;;5082245;28;20581;-80
2023/07/22 03:29:24;;;;;;;0.20;0.20;;;13.10;99.90;;;;;;5092016;28;20040;-80
2023/07/22 03:31:50;;;;;;;0.20;0.20;;;13.10;99.90;;;;;;5101483;28;20048;-80
2023/07/22 03:34:16;;;;;;;0.15;0.15;;;13.10;99.90;;;;;;5105871;27;20399;-81
2023/07/22 03:36:41;;;;;;;0.20;0.20;;;13.10;99.90;;;;;;5121695;27;20044;-80
2023/07/22 03:39:08;;;;;;;0.20;0.20;;;13.00;99.90;;;;;;5089697;28;20532;-80
2023/07/22 03:41:33;;;;;;;0.10;0.10;;;13.10;99.90;;;;;;5087634;28;20044;-80
2023/07/22 03:43:59;;;;;;;0.20;0.20;;;13.10;99.90;;;;;;5109773;27;20060;-80
2023/07/22 03:46:25;;;;;;;0.10;0.10;;;13.00;99.90;;;;;;5088654;28;20040;-80
2023/07/22 03:48:50;;;;;;;0.20;0.20;;;13.00;99.90;;;;;;5090722;28;20627;-80
2023/07/22 03:51:17;;;;;;;0.20;0.20;;;13.00;99.90;;;;;;5087841;28;20063;-81
2023/07/22 03:53:42;;;;;;;0.20;0.20;;;13.00;99.90;;;;;;5089581;28;20051;-80
2023/07/22 03:56:08;;;;;;;0.20;0.20;;;13.00;99.90;;;;;;5090697;28;20411;-80
2023/07/22 03:58:34;;;;;;;0.20;0.20;;;13.00;99.90;;;;;;5088920;28;20194;-82
2023/07/22 04:00:59;;;;;;;0.20;0.20;;;13.00;99.90;;;;;;5086203;28;20061;-82
2023/07/22 04:03:25;;;;;;;0.10;0.10;;;13.00;99.90;;;;;;5081899;28;20054;-80
2023/07/22 04:05:55;;;;;;;0.10;0.10;;;13.00;99.90;;;;;;5084988;28;20044;-80
2023/07/22 04:08:21;;;;;;;0.20;0.20;;;13.00;99.90;;;;;;5079902;28;20048;-80
2023/07/22 04:10:54;;;;;;;0.20;0.20;;;13.10;99.90;;;;;;5111410;27;20416;-80
2023/07/22 04:13:21;;;;;;;0.15;0.15;;;13.10;99.90;;;;;;5082745;28;20043;-80
2023/07/22 04:15:47;;;;;;;0.20;0.20;;;13.10;99.90;;;;;;5073329;28;20088;-81
2023/07/22 04:18:14;;;;;;;0.10;0.10;;;13.10;99.90;;;;;;5104366;28;20044;-80
2023/07/22 04:20:40;;;;;;;0.20;0.20;;;13.10;99.90;;;;;;5089613;28;20062;-80
2023/07/22 04:23:06;;;;;;;0.10;0.10;;;13.20;99.90;;;;;;5101016;28;20067;-81
2023/07/22 04:25:32;;;;;;;0.20;0.20;;;13.10;99.90;;;;;;5086593;28;20454;-81
2023/07/22 04:27:57;;;;;;;0.10;0.10;;;13.20;99.90;;;;;;5090735;28;20051;-80
2023/07/22 04:30:24;;;;;;;0.20;0.20;;;13.30;99.90;;;;;;5102873;27;20058;-80
2023/07/22 04:32:50;;;;;;;0.10;0.10;;;13.30;99.90;;;;;;5072939;28;20075;-80
2023/07/22 04:35:17;;;;;;;0.20;0.20;;;13.30;99.90;;;;;;5074192;28;20043;-81
2023/07/22 04:37:46;;;;;;;0.20;0.20;;;13.40;99.90;;;;;;5088590;28;20062;-80
2023/07/22 04:40:18;;;;;;;0.13;0.13;;;13.40;99.90;;;;;;5090244;28;20036;-80
2023/07/22 04:42:44;;;;;;;0.10;0.10;;;13.50;99.90;;;;;;5086694;28;20051;-80
2023/07/22 04:45:11;;;;;;;0.10;0.10;;;13.50;99.90;;;;;;5090333;28;20055;-80
2023/07/22 04:47:39;;;;;;;0.20;0.20;;;13.60;99.90;;;;;;5105377;28;20048;-79
2023/07/22 04:50:09;;;;;;;0.10;0.10;;;13.60;99.90;;;;;;5070049;28;20589;-81
2023/07/22 04:52:38;;;;;;;0.20;0.20;;;13.60;99.90;;;;;;5069051;28;20040;-80
2023/07/22 04:55:08;;;;;;;0.15;0.15;;;13.70;99.90;;;;;;5087233;28;20076;-80
2023/07/22 04:57:40;;;;;;;0.20;0.20;;;13.70;99.90;;;;;;5090437;28;20040;-80
2023/07/22 05:00:09;;;;;;;0.15;0.15;;;13.70;99.90;;;;;;5088601;28;20083;-79
2023/07/22 05:02:35;;;;;;;0.10;0.10;;;13.70;99.90;;;;;;5077504;28;20126;-80
2023/07/22 05:05:00;;;;;;;0.17;0.17;;;13.70;99.90;;;;;;5079994;28;20062;-81
2023/07/22 05:07:26;;;;;;;0.20;0.20;;;13.70;99.90;;;;;;5088173;28;20043;-80
2023/07/22 05:09:52;;;;;;;0.20;0.20;;;13.70;99.90;;;;;;5087532;28;20050;-80
2023/07/22 05:12:18;;;;;;;0.10;0.10;;;13.80;99.90;;;;;;5083396;28;20490;-81
2023/07/22 05:14:45;;;;;;;0.20;0.20;;;13.80;99.90;;;;;;5078789;28;20044;-81
2023/07/22 05:17:11;;;;;;;0.17;0.17;;;13.80;99.90;;;;;;5082180;28;20517;-80
2023/07/22 05:19:37;;;;;;;0.20;0.20;;;13.80;99.90;;;;;;5082557;28;20086;-81
2023/07/22 05:22:03;;;;;;;0.20;0.20;;;13.90;99.90;;;;;;5090689;28;20047;-81
2023/07/22 05:24:29;;;;;;;0.20;0.20;;;13.90;99.90;;;;;;5084954;28;20047;-81
2023/07/22 05:26:55;;;;;;;0.20;0.20;;;13.90;99.90;;;;;;5090150;28;20044;-81
2023/07/22 05:29:20;;;;;;;0.20;0.20;;;13.90;99.90;;;;;;5081142;28;20053;-81
2023/07/22 05:31:46;;;;;;;0.13;0.13;;;14.00;99.90;;;;;;5077509;28;20062;-81
2023/07/22 05:34:12;;;;;;;0.17;0.17;;;14.00;99.90;;;;;;5088272;28;20478;-81
2023/07/22 05:36:39;;;;;;;0.20;0.20;;;14.00;99.90;;;;;;5083742;28;20071;-81
2023/07/22 05:39:04;;;;;;;0.10;0.10;;;14.00;99.90;;;;;;5092129;28;20082;-81
2023/07/22 05:41:32;;;;;;;0.15;0.15;;;14.10;99.90;;;;;;5106594;27;20067;-81
2023/07/22 05:43:57;;;;;;;0.17;0.17;;;14.10;99.90;;;;;;5084824;28;20530;-81
2023/07/22 05:46:23;;;;;;;0.15;0.15;;;14.20;99.90;;;;;;5089103;28;20044;-81
2023/07/22 05:48:48;;;;;;;0.10;0.10;;;14.20;99.90;;;;;;5079985;28;20114;-81
2023/07/22 05:51:15;;;;;;;0.10;0.10;;;14.30;99.90;;;;;;5070473;28;20040;-81
2023/07/22 05:53:43;;;;;;;0.10;0.10;;;14.30;99.90;;;;;;5105751;28;20047;-81
2023/07/22 05:56:09;;;;;;;0.20;0.20;;;14.30;99.90;;;;;;5090019;28;20169;-80
2023/07/22 05:58:34;;;;;;;0.20;0.20;;;14.40;99.90;;;;;;5086887;28;20123;-80
2023/07/22 06:01:00;;;;;;;0.20;0.20;;;14.40;99.90;;;;;;5081859;28;20067;-81
2023/07/22 06:03:26;;;;;;;0.20;0.20;;;14.50;99.90;;;;;;5115631;28;20059;-81
2023/07/22 06:05:52;;;;;;;0.15;0.15;;;14.50;99.90;;;;;;5082524;28;20024;-80
2023/07/22 06:08:17;;;;;;;0.20;0.20;;;14.50;99.90;;;;;;5109356;28;20518;-81
2023/07/22 06:10:43;;;;;;;0.20;0.20;;;14.60;99.90;;;;;;5086463;28;20032;-80
2023/07/22 06:13:09;;;;;;;0.20;0.20;;;14.60;99.90;;;;;;5084849;28;20075;-80
2023/07/22 06:15:35;;;;;;;0.10;0.10;;;14.70;99.90;;;;;;5087489;28;20055;-80
2023/07/22 06:18:01;;;;;;;0.20;0.20;;;14.80;99.90;;;;;;5092180;28;20046;-80
2023/07/22 06:20:27;;;;;;;0.10;0.10;;;14.80;99.90;;;;;;5085620;28;21548;-80
2023/07/22 06:22:53;;;;;;;0.20;0.20;;;14.80;99.90;;;;;;5091883;28;20141;-81
2023/07/22 06:25:18;;;;;;;0.10;0.10;;;14.90;99.90;;;;;;5088716;28;20455;-81
2023/07/22 06:27:44;;;;;;;0.10;0.10;;;15.00;99.90;;;;;;5092708;28;20044;-81
2023/07/22 06:30:10;;;;;;;0.10;0.10;;;15.00;99.90;;;;;;5093550;28;20063;-81
2023/07/22 06:32:39;;;;;;;0.20;0.20;;;15.00;99.90;;;;;;5091383;28;20048;-81
2023/07/22 06:35:05;;;;;;;0.10;0.10;;;15.10;99.90;;;;;;5082995;28;20131;-81
2023/07/22 06:37:31;;;;;;;0.20;0.20;;;15.20;99.90;;;;;;5119125;27;20039;-81
2023/07/22 06:39:57;;;;;;;0.20;0.20;;;15.20;99.90;;;;;;5086980;28;20051;-79
2023/07/22 06:42:22;;;;;;;1.05;0.30;;;15.20;99.90;;;;;;5087153;28;20479;-81
2023/07/22 06:44:48;;;;;;;0.20;0.20;;;15.30;99.90;;;;;;5088977;28;20036;-88
2023/07/22 06:47:14;;;;;;;0.10;0.10;;;15.30;99.90;;;;;;5091907;28;20040;-81
2023/07/22 06:49:41;;;;;;;0.20;0.20;;;15.40;99.90;;;;;;5109201;27;20047;-81
2023/07/22 06:52:07;;;;;;;0.17;0.17;;;15.40;99.90;;;;;;5090556;28;20057;-81
2023/07/22 06:54:34;;;;;;;0.20;0.20;;;15.40;99.90;;;;;;5088168;28;20569;-81
2023/07/22 06:56:59;;;;;;;0.10;0.10;;;15.50;99.90;;;;;;5092051;28;20044;-81
2023/07/22 06:59:26;;;;;;;0.20;0.20;;;15.60;99.90;;;;;;5082229;28;20048;-81
2023/07/22 07:01:52;;;;;;;0.20;0.20;;;15.60;99.90;;;;;;5086751;28;20051;-81
2023/07/22 07:04:18;;;;;;;0.20;0.20;;;15.70;99.90;;;;;;5115983;27;20032;-81
2023/07/22 07:06:43;;;;;;;0.20;0.20;;;15.80;99.90;;;;;;5111860;27;20384;-81
2023/07/22 07:09:09;;;;;;;0.20;0.20;;;15.80;99.90;;;;;;5110404;27;20069;-81
2023/07/22 07:11:35;;;;;;;0.20;0.20;;;15.90;99.90;;;;;;5083239;28;20040;-81
2023/07/22 07:14:00;;;;;;;1.27;0.47;;;16.00;99.90;;;;;;5091102;28;20511;-82
2023/07/22 07:16:31;;;;;;;0.20;0.20;;;16.00;99.90;;;;;;5090432;28;20123;-80
2023/07/22 07:18:59;;;;;;;0.20;0.20;;;16.10;99.90;;;;;;5082864;28;20554;-81
2023/07/22 07:21:25;;;;;;;0.20;0.20;;;16.20;99.90;;;;;;5076226;28;20051;-80
2023/07/22 07:23:51;;;;;;;0.20;0.20;;;16.20;99.90;;;;;;5115752;27;20791;-81
2023/07/22 07:26:18;;;;;;;0.17;0.17;;;16.30;99.90;;;;;;5085731;28;20043;-82
2023/07/22 07:28:44;;;;;;;0.10;0.10;;;16.30;99.90;;;;;;5087920;28;20046;-81
2023/07/22 07:31:10;;;;;;;0.10;0.10;;;16.40;99.90;;;;;;5091260;28;20048;-81
2023/07/22 07:33:36;;;;;;;0.20;0.20;;;16.40;99.90;;;;;;5090220;28;20051;-81
2023/07/22 07:36:03;;;;;;;0.20;0.20;;;16.40;99.90;;;;;;5085683;28;20054;-81
2023/07/22 07:38:29;;;;;;;0.17;0.17;;;16.50;99.90;;;;;;5117075;27;20074;-81
2023/07/22 07:40:59;;;;;;;0.20;0.20;;;16.50;99.90;;;;;;5085683;28;20036;-81
2023/07/22 07:43:25;;;;;;;0.20;0.20;;;16.50;99.90;;;;;;5088747;28;20109;-81
2023/07/22 07:46:20;;;;;;;0.20;0.20;;;16.50;99.90;;;;;;5085282;28;20499;-80
2023/07/22 07:48:47;;;;;;;0.20;0.20;;;16.50;99.90;;;;;;5119306;27;20085;-80
2023/07/22 07:51:14;;;;;;;0.10;0.10;;;16.50;99.90;;;;;;5117198;27;20056;-80
2023/07/22 07:53:41;;;;;;;0.20;0.20;;;16.50;99.90;;;;;;5094810;28;20062;-80
2023/07/22 07:56:07;;;;;;;0.20;0.20;;;16.60;99.90;;;;;;5090309;28;20056;-80
2023/07/22 07:58:33;;;;;;;0.10;0.10;;;16.70;99.90;;;;;;5094029;28;20135;-81
2023/07/22 08:00:59;;;;;;;0.20;0.20;;;16.70;99.90;;;;;;5088731;28;20123;-82
2023/07/22 08:03:24;;;;;;;0.15;0.15;;;16.80;99.90;;;;;;5090868;28;20040;-81
2023/07/22 08:05:50;;;;;;;0.17;0.17;;;16.90;99.90;;;;;;5089577;28;20059;-81
2023/07/22 08:08:16;;;;;;;0.10;0.10;;;16.90;99.90;;;;;;5092319;28;20052;-80
2023/07/22 08:10:43;;;;;;;0.20;0.20;;;17.00;99.90;;;;;;5091601;28;20055;-81
2023/07/22 08:13:09;;;;;;;0.20;0.20;;;17.00;99.90;;;;;;5094220;28;20055;-80
2023/07/22 08:15:34;;;;;;;0.10;0.10;;;17.10;99.90;;;;;;5083619;28;20041;-80
2023/07/22 08:18:00;;;;;;;0.20;0.20;;;17.20;99.90;;;;;;5091278;28;20090;-81
2023/07/22 08:20:25;;;;;;;0.20;0.20;;;17.30;99.90;;;;;;5090147;28;20100;-80
2023/07/22 08:22:51;;;;;;;0.20;0.20;;;17.30;99.90;;;;;;5076395;28;20044;-81
2023/07/22 08:25:17;;;;;;;0.20;0.20;;;17.40;99.90;;;;;;5087108;28;20083;-81
2023/07/22 08:27:42;;;;;;;0.20;0.20;;;17.40;99.90;;;;;;5091649;28;20043;-82
2023/07/22 08:30:09;;;;;;;0.20;0.20;;;17.40;99.90;;;;;;5089035;28;20032;-81
2023/07/22 08:32:34;;;;;;;0.20;0.20;;;17.50;99.90;;;;;;5090027;28;20035;-81
2023/07/22 08:35:01;;;;;;;0.20;0.20;;;17.50;99.90;;;;;;5082809;28;20051;-80
2023/07/22 08:37:27;;;;;;;0.20;0.20;;;17.50;99.90;;;;;;5085884;28;20048;-81
2023/07/22 08:39:52;;;;;;;0.20;0.20;;;17.50;99.90;;;;;;5072657;28;20093;-81
2023/07/22 08:42:19;;;;;;;0.20;0.20;;;17.60;99.90;;;;;;5072287;28;20028;-80
2023/07/22 08:44:48;;;;;;;0.20;0.20;;;17.60;99.90;;;;;;5076406;28;20441;-81
2023/07/22 08:47:16;;;;;;;0.20;0.20;;;17.60;99.90;;;;;;5088184;28;20048;-81
2023/07/22 08:49:50;;;;;;;0.20;0.20;;;17.60;99.90;;;;;;5086500;28;20036;-81
2023/07/22 08:52:17;;;;;;;0.20;0.20;;;17.60;99.90;;;;;;5091490;28;20044;-82
2023/07/22 08:54:44;;;;;;;0.13;0.13;;;17.70;99.90;;;;;;5090322;28;20055;-81
2023/07/22 08:57:11;;;;;;;0.20;0.20;;;17.70;99.90;;;;;;5089870;28;20044;-81
2023/07/22 08:59:37;;;;;;;0.20;0.20;;;17.80;99.90;;;;;;5086278;28;20036;-81
2023/07/22 09:02:04;;;;;;;0.20;0.20;;;17.80;99.90;;;;;;5087744;28;20345;-81
2023/07/22 09:04:30;;;;;;;0.20;0.20;;;17.80;99.90;;;;;;5087844;28;20040;-81
2023/07/22 09:06:56;;;;;;;0.20;0.20;;;17.90;99.90;;;;;;5087768;28;20040;-83
2023/07/22 09:09:24;;;;;;;0.20;0.20;;;18.00;99.90;;;;;;5087000;28;20035;-79
2023/07/22 09:11:51;;;;;;;0.20;0.20;;;18.10;99.90;;;;;;5082829;28;20417;-79
2023/07/22 09:14:19;;;;;;;0.17;0.17;;;18.20;99.90;;;;;;5079600;28;20106;-81
2023/07/22 09:16:45;;;;;;;0.20;0.20;;;18.30;99.90;;;;;;5090559;28;20109;-81
2023/07/22 09:19:11;;;;;;;0.20;0.20;;;18.40;99.90;;;;;;5094503;28;20525;-79
2023/07/22 09:21:38;;;;;;;0.20;0.20;;;18.50;99.90;;;;;;5089638;28;20044;-79
2023/07/22 09:24:23;;;;;;;0.20;0.20;;;18.40;99.90;;;;;;5085984;28;20552;-82
2023/07/22 09:26:49;;;;;;;0.20;0.20;;;18.50;99.90;;;;;;5088967;28;20517;-79
2023/07/22 09:29:15;;;;;;;0.20;0.20;;;18.50;99.90;;;;;;5089057;28;20560;-79
2023/07/22 09:31:52;;;;;;;0.20;0.20;;;18.40;99.90;;;;;;5089077;28;20036;-78
2023/07/22 09:34:19;;;;;;;0.15;0.15;;;18.40;99.90;;;;;;5086255;28;20343;-78
2023/07/22 09:36:57;;;;;;;0.20;0.20;;;18.30;99.90;;;;;;5088650;28;20048;-79
2023/07/22 09:39:24;;;;;;;0.20;0.20;;;18.20;99.90;;;;;;5121932;27;20454;-79
2023/07/22 09:41:50;;;;;;;0.15;0.15;;;18.10;99.90;;;;;;5093819;28;20131;-78
2023/07/22 09:44:16;;;;;;;0.20;0.20;;;18.00;99.90;;;;;;5084846;28;20483;-78
2023/07/22 09:46:46;;;;;;;0.20;0.20;;;17.90;99.90;;;;;;5078819;28;20052;-79
2023/07/22 09:49:12;;;;;;;0.20;0.20;;;17.80;99.90;;;;;;5082041;28;20040;-78
2023/07/22 09:51:40;;;;;;;0.10;0.10;;;17.60;99.90;;;;;;5088756;28;20340;-79
2023/07/22 09:54:06;;;;;;;0.20;0.20;;;17.50;99.90;;;;;;5087178;28;20122;-79
2023/07/22 09:56:42;;;;;;;0.17;0.17;;;17.50;99.90;;;;;;5101536;28;20066;-78
2023/07/22 09:59:10;;;;;;;0.20;0.20;;;17.40;99.90;;;;;;5092078;28;20039;-80
2023/07/22 10:01:38;;;;;;;0.20;0.20;;;17.30;99.90;;;;;;5088012;28;20040;-77
2023/07/22 10:04:05;;;;;;;0.20;0.20;;;17.30;99.90;;;;;;5086328;28;20086;-78
2023/07/22 10:06:32;;;;;;;0.10;0.10;;;17.30;99.90;;;;;;5088273;28;20048;-79
2023/07/22 10:09:07;;;;;;;0.20;0.20;;;17.30;99.90;;;;;;5088630;28;20048;-78
2023/07/22 10:11:33;;;;;;;0.20;0.20;;;17.30;99.90;;;;;;5083725;28;20044;-78
2023/07/22 10:14:00;;;;;;;0.20;0.20;;;17.30;99.90;;;;;;5087526;28;20520;-77
2023/07/22 10:16:29;;;;;;;0.20;0.20;;;17.30;99.90;;;;;;5089738;28;20055;-79
2023/07/22 10:18:56;;;;;;;0.20;0.20;;;17.30;99.90;;;;;;5089006;28;20123;-77
2023/07/22 10:21:23;;;;;;;0.20;0.20;;;17.30;99.90;;;;;;5079932;28;20085;-78
2023/07/22 10:23:50;;;;;;;0.20;0.20;;;17.30;99.90;;;;;;5092143;28;20119;-78
2023/07/22 10:26:19;;;;;;;0.10;0.10;;;17.30;99.90;;;;;;5087252;28;20044;-78
2023/07/22 10:28:46;;;;;;;0.20;0.20;;;17.30;99.90;;;;;;5088025;28;20043;-78
2023/07/22 10:31:20;;;;;;;0.10;0.10;;;17.30;99.90;;;;;;5085704;28;20411;-79
2023/07/22 10:33:49;;;;;;;0.15;0.15;;;17.30;99.90;;;;;;5087873;28;20364;-79
2023/07/22 10:36:16;;;;;;;0.20;0.20;;;17.30;99.90;;;;;;5088363;28;20123;-79
2023/07/22 10:38:42;;;;;;;0.20;0.20;;;17.30;99.90;;;;;;5090347;28;20113;-78
2023/07/22 10:41:18;;;;;;;0.20;0.20;;;17.30;99.90;;;;;;5087281;28;20491;-78
2023/07/22 10:43:58;;;;;;;0.20;0.20;;;17.30;99.90;;;;;;5092534;28;20036;-78
2023/07/22 10:46:43;;;;;;;0.20;0.20;;;17.40;99.90;;;;;;5077316;28;20055;-78
2023/07/22 10:49:16;;;;;;;0.20;0.20;;;17.40;99.90;;;;;;5087368;28;20403;-79
2023/07/22 10:51:48;;;;;;;0.20;0.20;;;17.40;99.90;;;;;;5087428;28;20052;-78
2023/07/22 10:54:15;;;;;;;0.20;0.20;;;17.50;99.90;;;;;;5121537;28;20044;-79
2023/07/22 10:56:44;;;;;;;0.20;0.20;;;17.50;99.90;;;;;;5087216;28;20048;-78
2023/07/22 10:59:11;;;;;;;0.20;0.20;;;17.50;99.90;;;;;;5088653;28;20040;-78
2023/07/22 11:01:43;;;;;;;0.20;0.20;;;17.50;99.90;;;;;;5087999;28;20505;-78
2023/07/22 11:04:30;;;;;;;0.10;0.10;;;17.50;99.90;;;;;;5087687;28;20319;-78
2023/07/22 11:06:58;;;;;;;0.17;0.17;;;17.50;99.90;;;;;;5091361;28;20536;-80
2023/07/22 11:09:33;;;;;;;0.20;0.20;;;17.50;99.90;;;;;;5106722;27;20040;-80
2023/07/22 11:12:18;;;;;;;0.20;0.20;;;17.50;99.90;;;;;;5106611;28;20067;-80
2023/07/22 11:15:05;;;;;;;0.20;0.20;;;17.40;99.90;;;;;;5075818;28;20060;-80
2023/07/22 11:17:32;;;;;;;0.20;0.20;;;17.40;99.90;;;;;;5070759;28;20048;-80
2023/07/22 11:19:59;;;;;;;0.20;0.20;;;17.40;99.90;;;;;;5072693;28;20056;-81
2023/07/22 11:22:25;;;;;;;0.20;0.20;;;17.30;99.90;;;;;;5072962;28;20048;-81
2023/07/22 11:24:52;;;;;;;0.20;0.20;;;17.30;99.90;;;;;;5084517;28;20043;-80
2023/07/22 11:27:18;;;;;;;0.10;0.10;;;17.30;99.90;;;;;;5094149;28;20386;-80
2023/07/22 11:29:44;;;;;;;0.10;0.10;;;17.20;99.90;;;;;;5092363;28;20051;-81
2023/07/22 11:32:21;;;;;;;0.20;0.20;;;17.20;99.90;;;;;;5087464;28;20037;-81
2023/07/22 11:34:47;;;;;;;0.20;0.20;;;17.20;99.90;;;;;;5082679;28;20032;-81
2023/07/22 11:37:14;;;;;;;0.20;0.20;;;17.10;99.90;;;;;;5090576;28;20573;-81
2023/07/22 11:39:41;;;;;;;0.20;0.20;;;17.10;99.90;;;;;;5105387;27;20067;-80
2023/07/22 11:42:07;;;;;;;0.20;0.20;;;17.10;99.90;;;;;;5072531;28;20159;-81
2023/07/22 11:44:33;;;;;;;0.20;0.20;;;17.00;99.90;;;;;;5074389;28;20139;-81
2023/07/22 11:47:07;;;;;;;0.10;0.10;;;16.90;99.90;;;;;;5089929;28;20040;-83
2023/07/22 11:49:47;;;;;;;0.20;0.20;;;16.90;99.90;;;;;;5091104;28;20097;-81
2023/07/22 11:52:17;;;;;;;0.20;0.20;;;16.90;99.90;;;;;;5107864;27;20496;-80
2023/07/22 11:54:45;;;;;;;0.20;0.20;;;16.90;99.90;;;;;;5106548;27;20043;-82
2023/07/22 11:57:13;;;;;;;0.20;0.20;;;16.80;99.90;;;;;;5089048;28;20040;-82
2023/07/22 11:59:43;;;;;;;0.20;0.20;;;16.80;99.90;;;;;;5090449;28;20526;-80
2023/07/22 12:02:34;;;;;;;0.20;0.20;;;16.80;99.90;;;;;;5100545;28;20036;-81
2023/07/22 12:05:01;;;;;;;0.20;0.20;;;16.80;99.90;;;;;;5093682;28;20047;-81
2023/07/22 12:07:29;;;;;;;0.20;0.20;;;16.90;99.90;;;;;;5090133;28;20139;-81
2023/07/22 12:10:01;;;;;;;0.20;0.20;;;16.90;99.90;;;;;;5090226;28;20048;-81
2023/07/22 12:12:45;;;;;;;0.20;0.20;;;16.90;99.90;;;;;;5081237;28;20105;-81
2023/07/22 12:15:17;;;;;;;0.13;0.13;;;16.90;99.90;;;;;;5075656;28;20094;-81
2023/07/22 12:17:59;;;;;;;0.20;0.20;;;16.90;99.90;;;;;;5119841;27;20071;-81
2023/07/22 12:20:29;;;;;;;0.20;0.20;;;16.90;99.90;;;;;;5105388;27;20403;-82
2023/07/22 12:22:57;;;;;;;0.20;0.20;;;16.90;99.90;;;;;;5088796;28;20482;-81
2023/07/22 12:25:23;;;;;;;0.10;0.10;;;16.90;99.90;;;;;;5088691;28;20710;-81
2023/07/22 12:27:49;;;;;;;0.10;0.10;;;16.80;99.90;;;;;;5089612;28;20039;-82
2023/07/22 12:30:16;;;;;;;0.10;0.10;;;16.80;99.90;;;;;;5087276;28;20090;-81
2023/07/22 12:32:41;;;;;;;0.20;0.20;;;16.80;99.90;;;;;;5089334;28;20044;-81
2023/07/22 12:35:07;;;;;;;0.20;0.20;;;16.80;99.90;;;;;;5087763;28;20043;-81
2023/07/22 12:37:34;;;;;;;0.15;0.15;;;16.80;99.90;;;;;;5087363;28;20036;-82
2023/07/22 12:40:00;;;;;;;0.20;0.20;;;16.90;99.90;;;;;;5087143;28;20525;-82
2023/07/22 12:42:25;;;;;;;0.20;0.20;;;16.80;99.90;;;;;;5090992;28;20063;-81
2023/07/22 12:44:52;;;;;;;0.20;0.20;;;16.90;99.90;;;;;;5093546;28;20035;-81
2023/07/22 12:47:18;;;;;;;0.20;0.20;;;16.80;99.90;;;;;;5088336;28;20059;-82
2023/07/22 12:49:43;;;;;;;0.20;0.20;;;16.80;99.90;;;;;;5092989;28;20044;-82